Create Tblcommutelog Verified Points Advance Search
| # | Trip ID | Id Commuter | Trip Date | Trip Num | Current Lat | Current Lng | Delta Distance | Current Time | Activity | Activity Confidence | Current Speed | |
|---|---|---|---|---|---|---|---|---|---|---|---|---|
| 70061 | 250512_784617_16489083_0850 | 784617 | (not set) | (not set) | 38.806981851853 | -77.104656902381 | 9.2454 | 2025-05-12 13:01:47.249 | in_vehicle | 100 | 13.813513102721 | |
| 70062 | 250512_780998_16415274_0851 | 780998 | (not set) | (not set) | 39.0130551987 | -77.202920720434 | 3.8846 | 2025-05-12 13:01:47.506 | in_vehicle | 100 | 7.3493254177582 | |
| 70063 | 250512_766077_16507807_0854 | 766077 | (not set) | (not set) | 38.811401082239 | -77.202856326548 | 1.5988 | 2025-05-12 13:01:47.565 | in_vehicle | 100 | 5.7489248705821 | |
| 70064 | 250512_700992_16414139_0857 | 700992 | (not set) | (not set) | 39.197374152682 | -77.249689446524 | 0.7105 | 2025-05-12 13:01:47.916 | on_foot | 100 | -0.44703925898772 | |
| 70065 | 250512_700992_16414139_0857 | 700992 | (not set) | (not set) | 39.197374152682 | -77.249689446524 | 0.7105 | 2025-05-12 13:01:47.926 | on_foot | 100 | -0.44703925898772 | |
| 70066 | 250512_700992_16414139_0857 | 700992 | (not set) | (not set) | 39.197613669373 | -77.249338530726 | 0.7105 | 2025-05-12 13:01:48.065 | on_foot | 100 | -0.44703925898772 | |
| 70067 | 250512_772498_16490104_0845 | 772498 | (not set) | (not set) | 38.903869065708 | -76.940821731224 | 3.3168 | 2025-05-12 13:01:48.232 | unknown | 100 | 8.6099761281036 | |
| 70068 | 250512_700992_16414139_0857 | 700992 | (not set) | (not set) | 39.197606602169 | -77.24940577605 | 0.7326 | 2025-05-12 13:01:50.739 | on_foot | 100 | 0.23693080726349 | |
| 70069 | 250512_775454_16511572_0842 | 775454 | (not set) | (not set) | 39.120081921848 | -77.16470147891 | 0.7189 | 2025-05-12 13:01:50.802 | on_foot | 100 | -0.44703925898772 | |
| 70070 | 250512_780809_16496249_0838 | 780809 | (not set) | (not set) | 38.942494442942 | -77.284694341383 | 5.913 | 2025-05-12 13:01:51.263 | in_vehicle | 100 | 11.6587838744 | |
| 70071 | 250512_783145_6419315_0816 | 783145 | (not set) | (not set) | 39.106639866667 | -77.209075933333 | 27.5774 | 2025-05-12 13:01:51.943 | in_vehicle | 100 | 8.0958809802677 | |
| 70072 | 250512_783893_16465223_0836 | 783893 | (not set) | (not set) | 38.881971073185 | -77.112505056377 | 5.5162 | 2025-05-12 13:01:52.087 | in_vehicle | 100 | -0.44703925898772 | |
| 70073 | 250512_108110_16500693_0841 | 108110 | (not set) | (not set) | 38.999084033811 | -77.097654007466 | 1.1926 | 2025-05-12 13:01:54.274 | in_vehicle | 100 | -0.44703925898772 | |
| 70074 | 250512_771892_0_0846 | 771892 | (not set) | (not set) | 38.978836177885 | -77.010296685693 | 0.1535 | 2025-05-12 13:01:55.309 | on_foot | 100 | 1.6451044730748 | |
| 70075 | 250512_780745_16421763_0751 | 780745 | (not set) | (not set) | 38.895471258927 | -77.047605237941 | 39.3414 | 2025-05-12 13:01:57.672 | in_vehicle | 100 | 0 | |
| 70076 | 250512_780745_16421763_0751 | 780745 | (not set) | (not set) | 38.895471258927 | -77.047605237941 | 39.3414 | 2025-05-12 13:01:57.687 | in_vehicle | 100 | 0 | |
| 70077 | 250512_777589_16507005_0753 | 777589 | (not set) | (not set) | 38.920839257767 | -77.233318727048 | 22.457 | 2025-05-12 13:01:58.55 | on_foot | 100 | 0.32633865906104 | |
| 70078 | 250512_766075_16507806_0850 | 766075 | (not set) | (not set) | 38.870356989328 | -77.299058697418 | 3.8544 | 2025-05-12 13:01:59.224 | in_vehicle | 100 | 9.2268903055066 | |
| 70079 | 250512_780998_16415274_0851 | 780998 | (not set) | (not set) | 39.01126773925 | -77.202086468043 | 4.0158 | 2025-05-12 13:01:59.23 | in_vehicle | 100 | 7.8410686026447 | |
| 70080 | 250512_784617_16489083_0850 | 784617 | (not set) | (not set) | 38.807386634605 | -77.100483574848 | 9.4724 | 2025-05-12 13:01:59.261 | in_vehicle | 100 | 13.715164465743 |